Aransas Pass — WDF5061 — position and weather

sailwx.info

Track history (hours):
 
Tides and Currents Weather Stations Pressure Air Temp Water Temp Dewpoint Dewpoint Depression Visibility Wind Speed Wind Dir Waves Ship Positions

Aransas Pass

Owner: Higman Barge Lines, Inc., Orange, TX. More information available from US FCC via Universal Licensing System and Coast Guard Vessel Documentation Center.

Last reported at 2017-Aug-17 21:13 UTC. Time now 2017-Aug-22 13:09 UTC.
Position N 29°34' W 090°32'.

Length 26 m; draft 3 m.

Type: Towing. MMSI: 367458930.

Date/timePositionNaut miles runAvg speedWind from/ knotsBaromVisibWave heightAir tempDewpointWater temp
2017-Aug-17 21:13N 29°34' W 090°32'1 4.8
2017-Aug-17 20:59N 29°34' W 090°33'3 5.1
2017-Aug-17 20:28N 29°35' W 090°36'2 5.3
2017-Aug-17 20:00N 29°35' W 090°39'2 5.0
2017-Aug-17 19:30N 29°37' W 090°41'1 2.6
2017-Aug-17 19:00N 29°36' W 090°43'2 3.4
2017-Aug-17 18:30N 29°34' W 090°43'0 0.8
2017-Aug-17 18:00N 29°34' W 090°43'1 1.8
2017-Aug-17 17:30N 29°34' W 090°44'1 1.3
2017-Aug-17 17:00N 29°33' W 090°45'2 3.3
2017-Aug-17 16:30N 29°32' W 090°46'3 6.1
2017-Aug-17 16:00N 29°32' W 090°50'65 3.9
2017-Aug-16 23:07N 29°49' W 092°02'1 4.7
2017-Aug-16 22:56N 29°49' W 092°03'2 4.6
2017-Aug-16 22:30N 29°48' W 092°05'2 4.6
2017-Aug-16 22:00N 29°47' W 092°08'2 4.7
2017-Aug-16 21:30N 29°47' W 092°10'2 4.2
2017-Aug-16 21:00N 29°47' W 092°13'1 1.9
2017-Aug-16 20:30N 29°48' W 092°14'0 0.9
2017-Aug-16 20:00N 29°48' W 092°14'1 2.3
2017-Aug-16 19:30N 29°48' W 092°15'2 3.2
2017-Aug-16 18:55N 29°49' W 092°17'43 3.5
2017-Aug-16 06:32N 29°56' W 093°07'1 4.0
2017-Aug-16 06:19N 29°56' W 093°08'1 3.4
2017-Aug-16 06:00N 29°56' W 093°09'2 4.0
2017-Aug-16 05:30N 29°57' W 093°11'2 4.2
2017-Aug-16 05:00N 29°59' W 093°12'2 3.8
2017-Aug-16 04:30N 30°00' W 093°14'2 3.4
2017-Aug-16 04:00N 30°02' W 093°15'2 3.4
2017-Aug-16 03:30N 30°03' W 093°16'1 2.6
2017-Aug-16 03:00N 30°04' W 093°16'2 3.1
2017-Aug-16 02:30N 30°05' W 093°18'1 2.8
2017-Aug-16 02:00N 30°06' W 093°19'2 4.0
2017-Aug-16 01:30N 30°04' W 093°21'2 3.7
2017-Aug-16 01:00N 30°04' W 093°23'3 5.1
2017-Aug-16 00:30N 30°04' W 093°26'3 5.2
2017-Aug-16 00:00N 30°04' W 093°29'  
Track history (hours):
 
Tides and Currents Weather Stations Pressure Air Temp Water Temp Dewpoint Dewpoint Depression Visibility Wind Speed Wind Dir Waves Ship Positions

Aransas Pass

Owner: Higman Barge Lines, Inc., Orange, TX. More information available from US FCC via Universal Licensing System and Coast Guard Vessel Documentation Center.

Last reported at 2017-Aug-17 21:13 UTC. Time now 2017-Aug-22 13:09 UTC.
Position N 29°34' W 090°32'.

Length 26 m; draft 3 m.

Type: Towing. MMSI: 367458930.

Date/timePositionNaut miles runAvg speedWind from/ knotsBaromVisibWave heightAir tempDewpointWater temp
2017-Aug-17 21:13N 29°34' W 090°32'1 4.8
2017-Aug-17 20:59N 29°34' W 090°33'3 5.1
2017-Aug-17 20:28N 29°35' W 090°36'2 5.3
2017-Aug-17 20:00N 29°35' W 090°39'2 5.0
2017-Aug-17 19:30N 29°37' W 090°41'1 2.6
2017-Aug-17 19:00N 29°36' W 090°43'2 3.4
2017-Aug-17 18:30N 29°34' W 090°43'0 0.8
2017-Aug-17 18:00N 29°34' W 090°43'1 1.8
2017-Aug-17 17:30N 29°34' W 090°44'1 1.3
2017-Aug-17 17:00N 29°33' W 090°45'2 3.3
2017-Aug-17 16:30N 29°32' W 090°46'3 6.1
2017-Aug-17 16:00N 29°32' W 090°50'65 3.9
2017-Aug-16 23:07N 29°49' W 092°02'1 4.7
2017-Aug-16 22:56N 29°49' W 092°03'2 4.6
2017-Aug-16 22:30N 29°48' W 092°05'2 4.6
2017-Aug-16 22:00N 29°47' W 092°08'2 4.7
2017-Aug-16 21:30N 29°47' W 092°10'2 4.2
2017-Aug-16 21:00N 29°47' W 092°13'1 1.9
2017-Aug-16 20:30N 29°48' W 092°14'0 0.9
2017-Aug-16 20:00N 29°48' W 092°14'1 2.3
2017-Aug-16 19:30N 29°48' W 092°15'2 3.2
2017-Aug-16 18:55N 29°49' W 092°17'43 3.5
2017-Aug-16 06:32N 29°56' W 093°07'1 4.0
2017-Aug-16 06:19N 29°56' W 093°08'1 3.4
2017-Aug-16 06:00N 29°56' W 093°09'2 4.0
2017-Aug-16 05:30N 29°57' W 093°11'2 4.2
2017-Aug-16 05:00N 29°59' W 093°12'2 3.8
2017-Aug-16 04:30N 30°00' W 093°14'2 3.4
2017-Aug-16 04:00N 30°02' W 093°15'2 3.4
2017-Aug-16 03:30N 30°03' W 093°16'1 2.6
2017-Aug-16 03:00N 30°04' W 093°16'2 3.1
2017-Aug-16 02:30N 30°05' W 093°18'1 2.8
2017-Aug-16 02:00N 30°06' W 093°19'2 4.0
2017-Aug-16 01:30N 30°04' W 093°21'2 3.7
2017-Aug-16 01:00N 30°04' W 093°23'3 5.1
2017-Aug-16 00:30N 30°04' W 093°26'3 5.2
2017-Aug-16 00:00N 30°04' W 093°29'  

Dump ship's entire track history